sensor_id;sensor_type;location;lat;lon;timestamp;pressure;altitude;pressure_sealevel;temperature;humidity
10127;BME280;13080;42.608;23.362;2023-05-08T00:01:24;153717.34;;;10.34;79.66
10127;BME280;13080;42.608;23.362;2023-05-08T00:03:53;153701.69;;;10.28;79.27
10127;BME280;13080;42.608;23.362;2023-05-08T00:06:19;153704.31;;;10.29;79.82
10127;BME280;13080;42.608;23.362;2023-05-08T00:08:46;153690.00;;;10.23;80.63
10127;BME280;13080;42.608;23.362;2023-05-08T00:11:13;153687.38;;;10.22;80.67
10127;BME280;13080;42.608;23.362;2023-05-08T00:13:40;153675.69;;;10.17;81.85
10127;BME280;13080;42.608;23.362;2023-05-08T00:16:06;153673.13;;;10.16;82.00
10127;BME280;13080;42.608;23.362;2023-05-08T00:18:36;153657.53;;;10.10;82.91
10127;BME280;13080;42.608;23.362;2023-05-08T00:21:04;153643.28;;;10.05;83.41
10127;BME280;13080;42.608;23.362;2023-05-08T00:23:32;153630.25;;;9.99;83.90
10127;BME280;13080;42.608;23.362;2023-05-08T00:25:58;153628.97;;;9.99;84.60
10127;BME280;13080;42.608;23.362;2023-05-08T00:28:25;153622.50;;;9.96;84.30
10127;BME280;13080;42.608;23.362;2023-05-08T00:30:52;153616.00;;;9.94;85.43
10127;BME280;13080;42.608;23.362;2023-05-08T00:33:19;153605.63;;;9.90;84.97
10127;BME280;13080;42.608;23.362;2023-05-08T00:35:46;153599.13;;;9.87;86.27
10127;BME280;13080;42.608;23.362;2023-05-08T00:38:14;153595.22;;;9.86;86.57
10127;BME280;13080;42.608;23.362;2023-05-08T00:40:40;153584.81;;;9.82;86.96
10127;BME280;13080;42.608;23.362;2023-05-08T00:43:07;153557.59;;;9.71;87.32
10127;BME280;13080;42.608;23.362;2023-05-08T00:45:36;153556.28;;;9.70;87.60
10127;BME280;13080;42.608;23.362;2023-05-08T00:48:03;153542.03;;;9.65;87.67
10127;BME280;13080;42.608;23.362;2023-05-08T00:50:30;153542.03;;;9.65;87.42
10127;BME280;13080;42.608;23.362;2023-05-08T00:52:59;153535.53;;;9.62;88.05
10127;BME280;13080;42.608;23.362;2023-05-08T00:55:30;153531.63;;;9.61;88.47
10127;BME280;13080;42.608;23.362;2023-05-08T00:57:58;153517.34;;;9.55;89.08
10127;BME280;13080;42.608;23.362;2023-05-08T01:00:25;153499.16;;;9.48;89.34
10127;BME280;13080;42.608;23.362;2023-05-08T01:02:52;153503.09;;;9.49;90.19
10127;BME280;13080;42.608;23.362;2023-05-08T01:05:19;153504.38;;;9.50;89.98
10127;BME280;13080;42.608;23.362;2023-05-08T01:07:46;153499.16;;;9.48;90.07
10127;BME280;13080;42.608;23.362;2023-05-08T01:10:13;153496.59;;;9.47;91.14
10127;BME280;13080;42.608;23.362;2023-05-08T01:12:49;153487.50;;;9.43;90.69
10127;BME280;13080;42.608;23.362;2023-05-08T01:15:23;153482.31;;;9.41;90.28
10127;BME280;13080;42.608;23.362;2023-05-08T01:18:08;153478.44;;;9.40;90.88
10127;BME280;13080;42.608;23.362;2023-05-08T01:20:43;153479.72;;;9.40;91.02
10127;BME280;13080;42.608;23.362;2023-05-08T01:23:41;153478.44;;;9.40;90.29
10127;BME280;13080;42.608;23.362;2023-05-08T01:29:34;153464.16;;;9.34;91.13
10127;BME280;13080;42.608;23.362;2023-05-08T01:32:16;153460.22;;;9.32;91.81
10127;BME280;13080;42.608;23.362;2023-05-08T01:34:48;153473.25;;;9.38;91.88
10127;BME280;13080;42.608;23.362;2023-05-08T01:37:22;153470.63;;;9.36;92.00
10127;BME280;13080;42.608;23.362;2023-05-08T01:39:58;153456.38;;;9.31;92.17
10127;BME280;13080;42.608;23.362;2023-05-08T01:42:34;153447.28;;;9.27;91.93
10127;BME280;13080;42.608;23.362;2023-05-08T01:45:08;153433.03;;;9.22;92.02
10127;BME280;13080;42.608;23.362;2023-05-08T01:47:40;153444.69;;;9.26;92.84
10127;BME280;13080;42.608;23.362;2023-05-08T01:50:13;153430.41;;;9.21;93.36
10127;BME280;13080;42.608;23.362;2023-05-08T01:52:44;153430.41;;;9.21;92.99
10127;BME280;13080;42.608;23.362;2023-05-08T01:55:19;153414.81;;;9.14;92.94
10127;BME280;13080;42.608;23.362;2023-05-08T01:57:48;153408.34;;;9.12;93.28
10127;BME280;13080;42.608;23.362;2023-05-08T02:00:18;153400.59;;;9.09;93.40
10127;BME280;13080;42.608;23.362;2023-05-08T02:02:48;153397.97;;;9.08;93.33
10127;BME280;13080;42.608;23.362;2023-05-08T02:05:17;153401.88;;;9.09;93.32
10127;BME280;13080;42.608;23.362;2023-05-08T02:07:48;153382.44;;;9.02;94.16
10127;BME280;13080;42.608;23.362;2023-05-08T02:10:15;153370.75;;;8.97;93.59
10127;BME280;13080;42.608;23.362;2023-05-08T02:12:43;153362.94;;;8.94;94.10
10127;BME280;13080;42.608;23.362;2023-05-08T02:15:12;153368.13;;;8.96;94.33
10127;BME280;13080;42.608;23.362;2023-05-08T02:17:40;153361.66;;;8.93;94.00
10127;BME280;13080;42.608;23.362;2023-05-08T02:20:11;153356.47;;;8.91;94.98
10127;BME280;13080;42.608;23.362;2023-05-08T02:22:40;153353.88;;;8.90;95.94
10127;BME280;13080;42.608;23.362;2023-05-08T02:25:09;153353.88;;;8.90;96.66
10127;BME280;13080;42.608;23.362;2023-05-08T02:27:40;153344.78;;;8.87;95.92
10127;BME280;13080;42.608;23.362;2023-05-08T02:30:11;153342.22;;;8.86;96.60
10127;BME280;13080;42.608;23.362;2023-05-08T02:32:40;153331.84;;;8.82;96.09
10127;BME280;13080;42.608;23.362;2023-05-08T02:35:11;153335.69;;;8.83;96.21
10127;BME280;13080;42.608;23.362;2023-05-08T02:37:40;153333.13;;;8.82;96.92
10127;BME280;13080;42.608;23.362;2023-05-08T02:40:09;153331.84;;;8.82;96.08
10127;BME280;13080;42.608;23.362;2023-05-08T02:42:37;153331.84;;;8.82;96.31
10127;BME280;13080;42.608;23.362;2023-05-08T02:45:05;153346.06;;;8.87;96.74
10127;BME280;13080;42.608;23.362;2023-05-08T02:47:38;153351.28;;;8.89;96.76
10127;BME280;13080;42.608;23.362;2023-05-08T02:50:14;153347.41;;;8.88;96.34
10127;BME280;13080;42.608;23.362;2023-05-08T02:52:44;153346.06;;;8.87;96.97
10127;BME280;13080;42.608;23.362;2023-05-08T02:55:26;153360.38;;;8.93;97.60
10127;BME280;13080;42.608;23.362;2023-05-08T02:58:04;153353.88;;;8.90;97.03
10127;BME280;13080;42.608;23.362;2023-05-08T03:00:36;153347.41;;;8.88;97.06
10127;BME280;13080;42.608;23.362;2023-05-08T03:03:09;153349.97;;;8.89;97.65
10127;BME280;13080;42.608;23.362;2023-05-08T03:05:42;153346.06;;;8.87;97.70
10127;BME280;13080;42.608;23.362;2023-05-08T03:08:14;153343.50;;;8.86;98.67
10127;BME280;13080;42.608;23.362;2023-05-08T03:10:45;153346.06;;;8.87;98.48
10127;BME280;13080;42.608;23.362;2023-05-08T03:13:15;153359.09;;;8.92;98.30
10127;BME280;13080;42.608;23.362;2023-05-08T03:15:45;153365.56;;;8.95;98.38
10127;BME280;13080;42.608;23.362;2023-05-08T03:18:16;153374.63;;;8.99;97.53
10127;BME280;13080;42.608;23.362;2023-05-08T03:20:51;153379.81;;;9.01;97.14
10127;BME280;13080;42.608;23.362;2023-05-08T03:23:20;153385.00;;;9.03;97.71
10127;BME280;13080;42.608;23.362;2023-05-08T03:25:49;153395.38;;;9.07;97.82
10127;BME280;13080;42.608;23.362;2023-05-08T03:28:17;153401.88;;;9.09;97.48
10127;BME280;13080;42.608;23.362;2023-05-08T03:30:44;153413.53;;;9.14;97.07
10127;BME280;13080;42.608;23.362;2023-05-08T03:33:12;153426.50;;;9.19;95.17
10127;BME280;13080;42.608;23.362;2023-05-08T03:35:40;153436.88;;;9.23;95.27
10127;BME280;13080;42.608;23.362;2023-05-08T03:38:09;153453.75;;;9.30;95.26
10127;BME280;13080;42.608;23.362;2023-05-08T03:40:36;153461.56;;;9.33;95.76
10127;BME280;13080;42.608;23.362;2023-05-08T03:43:05;153478.44;;;9.40;94.76
10127;BME280;13080;42.608;23.362;2023-05-08T03:45:34;153495.31;;;9.46;94.60
10127;BME280;13080;42.608;23.362;2023-05-08T03:48:03;153512.19;;;9.53;93.62
10127;BME280;13080;42.608;23.362;2023-05-08T03:50:31;153534.19;;;9.62;92.99
10127;BME280;13080;42.608;23.362;2023-05-08T03:52:58;153562.75;;;9.73;93.16
10127;BME280;13080;42.608;23.362;2023-05-08T03:55:26;153591.31;;;9.84;91.73
10127;BME280;13080;42.608;23.362;2023-05-08T03:57:57;153621.19;;;9.96;92.20
10127;BME280;13080;42.608;23.362;2023-05-08T04:00:34;153644.56;;;10.05;91.97
10127;BME280;13080;42.608;23.362;2023-05-08T04:03:17;153662.72;;;10.12;91.36
10127;BME280;13080;42.608;23.362;2023-05-08T04:05:50;153688.72;;;10.23;90.97
10127;BME280;13080;42.608;23.362;2023-05-08T04:08:24;153705.66;;;10.29;90.06
10127;BME280;13080;42.608;23.362;2023-05-08T04:11:05;153700.41;;;10.27;89.62
10127;BME280;13080;42.608;23.362;2023-05-08T04:13:38;153704.31;;;10.29;89.80
10127;BME280;13080;42.608;23.362;2023-05-08T04:16:12;153717.34;;;10.34;89.80
10127;BME280;13080;42.608;23.362;2023-05-08T04:18:44;153747.19;;;10.46;91.37
10127;BME280;13080;42.608;23.362;2023-05-08T04:21:18;153764.06;;;10.52;90.73
10127;BME280;13080;42.608;23.362;2023-05-08T04:23:47;153771.84;;;10.55;89.88
10127;BME280;13080;42.608;23.362;2023-05-08T04:26:18;153780.97;;;10.59;89.56
10127;BME280;13080;42.608;23.362;2023-05-08T04:28:45;153790.03;;;10.63;89.02
10127;BME280;13080;42.608;23.362;2023-05-08T04:31:13;153797.84;;;10.66;88.82
10127;BME280;13080;42.608;23.362;2023-05-08T04:33:41;153819.94;;;10.74;88.21
10127;BME280;13080;42.608;23.362;2023-05-08T04:36:10;153847.16;;;10.85;87.89
10127;BME280;13080;42.608;23.362;2023-05-08T04:38:38;153870.59;;;10.94;86.90
10127;BME280;13080;42.608;23.362;2023-05-08T04:41:05;153886.16;;;11.00;86.59
10127;BME280;13080;42.608;23.362;2023-05-08T04:43:33;153893.97;;;11.03;88.11
10127;BME280;13080;42.608;23.362;2023-05-08T04:46:01;153918.66;;;11.13;87.72
10127;BME280;13080;42.608;23.362;2023-05-08T04:48:29;153947.22;;;11.24;87.21
10127;BME280;13080;42.608;23.362;2023-05-08T04:50:58;153974.53;;;11.35;84.95
10127;BME280;13080;42.608;23.362;2023-05-08T04:53:24;153992.72;;;11.42;84.82
10127;BME280;13080;42.608;23.362;2023-05-08T04:55:51;154009.63;;;11.49;84.75
10127;BME280;13080;42.608;23.362;2023-05-08T04:58:18;154033.00;;;11.58;83.50
10127;BME280;13080;42.608;23.362;2023-05-08T05:00:46;154059.03;;;11.69;83.66
10127;BME280;13080;42.608;23.362;2023-05-08T05:03:13;154100.59;;;11.85;84.39
10127;BME280;13080;42.608;23.362;2023-05-08T05:05:40;154120.13;;;11.93;84.09
10127;BME280;13080;42.608;23.362;2023-05-08T05:08:07;154133.16;;;11.98;83.81
10127;BME280;13080;42.608;23.362;2023-05-08T05:10:34;154161.78;;;12.09;83.84
10127;BME280;13080;42.608;23.362;2023-05-08T05:13:01;154190.38;;;12.20;83.63
10127;BME280;13080;42.608;23.362;2023-05-08T05:15:28;154200.78;;;12.24;83.50
10127;BME280;13080;42.608;23.362;2023-05-08T05:17:56;154202.06;;;12.25;83.21
10127;BME280;13080;42.608;23.362;2023-05-08T05:20:23;154216.34;;;12.31;82.42
10127;BME280;13080;42.608;23.362;2023-05-08T05:22:50;154216.34;;;12.31;82.60
10127;BME280;13080;42.608;23.362;2023-05-08T05:25:16;154261.88;;;12.48;81.00
10127;BME280;13080;42.608;23.362;2023-05-08T05:27:43;154277.50;;;12.55;81.61
10127;BME280;13080;42.608;23.362;2023-05-08T05:30:10;154274.91;;;12.54;81.54
10127;BME280;13080;42.608;23.362;2023-05-08T05:32:37;154308.75;;;12.67;82.78
10127;BME280;13080;42.608;23.362;2023-05-08T05:35:06;154325.66;;;12.74;82.15
10127;BME280;13080;42.608;23.362;2023-05-08T05:37:34;154347.72;;;12.82;82.56
10127;BME280;13080;42.608;23.362;2023-05-08T05:40:01;154382.91;;;12.96;83.06
10127;BME280;13080;42.608;23.362;2023-05-08T05:42:28;154407.59;;;13.06;80.63
10127;BME280;13080;42.608;23.362;2023-05-08T05:44:55;154433.63;;;13.16;80.87
10127;BME280;13080;42.608;23.362;2023-05-08T05:47:25;154464.91;;;13.28;78.95
10127;BME280;13080;42.608;23.362;2023-05-08T05:49:51;154479.25;;;13.34;78.23
10127;BME280;13080;42.608;23.362;2023-05-08T05:52:19;154484.41;;;13.36;78.67
10127;BME280;13080;42.608;23.362;2023-05-08T05:54:46;154494.81;;;13.40;77.36
10127;BME280;13080;42.608;23.362;2023-05-08T05:57:13;154533.88;;;13.56;78.50
10127;BME280;13080;42.608;23.362;2023-05-08T05:59:40;154519.59;;;13.50;77.15
10127;BME280;13080;42.608;23.362;2023-05-08T06:02:07;154548.22;;;13.61;75.74
10127;BME280;13080;42.608;23.362;2023-05-08T06:04:38;154548.22;;;13.61;76.32
10127;BME280;13080;42.608;23.362;2023-05-08T06:07:05;154593.78;;;13.79;76.14
10127;BME280;13080;42.608;23.362;2023-05-08T06:09:34;154623.72;;;13.91;76.89
10127;BME280;13080;42.608;23.362;2023-05-08T06:12:00;154661.50;;;14.06;76.79
10127;BME280;13080;42.608;23.362;2023-05-08T06:14:27;154684.91;;;14.15;73.29
10127;BME280;13080;42.608;23.362;2023-05-08T06:16:54;154695.31;;;14.19;73.15
10127;BME280;13080;42.608;23.362;2023-05-08T06:19:21;154739.59;;;14.37;73.55
10127;BME280;13080;42.608;23.362;2023-05-08T06:21:49;154765.66;;;14.47;72.18
10127;BME280;13080;42.608;23.362;2023-05-08T06:24:16;154802.16;;;14.61;72.92
10127;BME280;13080;42.608;23.362;2023-05-08T06:26:45;154850.38;;;14.80;72.28
10127;BME280;13080;42.608;23.362;2023-05-08T06:29:12;154901.19;;;15.00;72.91
10127;BME280;13080;42.608;23.362;2023-05-08T06:31:38;154948.09;;;15.18;73.21
10127;BME280;13080;42.608;23.362;2023-05-08T06:34:05;154972.84;;;15.28;70.49
10127;BME280;13080;42.608;23.362;2023-05-08T06:36:32;155027.59;;;15.50;70.72
10127;BME280;13080;42.608;23.362;2023-05-08T06:38:59;155085.00;;;15.72;68.25
10127;BME280;13080;42.608;23.362;2023-05-08T06:41:25;155092.81;;;15.75;66.83
10127;BME280;13080;42.608;23.362;2023-05-08T06:43:54;155100.66;;;15.78;67.08
10127;BME280;13080;42.608;23.362;2023-05-08T06:46:21;155094.09;;;15.76;66.20
10127;BME280;13080;42.608;23.362;2023-05-08T06:48:47;155068.00;;;15.66;66.40
10127;BME280;13080;42.608;23.362;2023-05-08T06:51:14;155069.31;;;15.66;66.67
10127;BME280;13080;42.608;23.362;2023-05-08T06:53:41;155121.50;;;15.87;65.43
10127;BME280;13080;42.608;23.362;2023-05-08T06:56:08;155109.75;;;15.82;66.24
10127;BME280;13080;42.608;23.362;2023-05-08T06:58:35;155160.63;;;16.02;63.97
10127;BME280;13080;42.608;23.362;2023-05-08T07:01:03;155194.53;;;16.15;64.23
10127;BME280;13080;42.608;23.362;2023-05-08T07:03:30;155220.63;;;16.26;63.43
10127;BME280;13080;42.608;23.362;2023-05-08T07:05:56;155232.38;;;16.30;62.91
10127;BME280;13080;42.608;23.362;2023-05-08T07:08:23;155236.25;;;16.32;61.44
10127;BME280;13080;42.608;23.362;2023-05-08T07:10:50;155208.91;;;16.21;62.40
10127;BME280;13080;42.608;23.362;2023-05-08T07:13:17;155216.69;;;16.24;62.71
10127;BME280;13080;42.608;23.362;2023-05-08T07:15:46;155219.28;;;16.25;63.88
10127;BME280;13080;42.608;23.362;2023-05-08T07:18:15;155228.44;;;16.29;63.83
10127;BME280;13080;42.608;23.362;2023-05-08T07:20:41;155245.38;;;16.35;62.90
10127;BME280;13080;42.608;23.362;2023-05-08T07:23:08;155204.97;;;16.19;63.62
10127;BME280;13080;42.608;23.362;2023-05-08T07:25:35;155253.19;;;16.38;65.15
10127;BME280;13080;42.608;23.362;2023-05-08T07:28:02;155305.38;;;16.59;64.63
10127;BME280;13080;42.608;23.362;2023-05-08T07:30:28;155349.72;;;16.76;64.80
10127;BME280;13080;42.608;23.362;2023-05-08T07:32:55;155464.59;;;17.21;65.30
10127;BME280;13080;42.608;23.362;2023-05-08T07:35:25;155545.50;;;17.53;60.87
10127;BME280;13080;42.608;23.362;2023-05-08T07:37:51;155592.53;;;17.72;61.39
10127;BME280;13080;42.608;23.362;2023-05-08T07:40:18;155555.97;;;17.57;61.34
10127;BME280;13080;42.608;23.362;2023-05-08T07:42:45;155550.72;;;17.55;58.73
10127;BME280;13080;42.608;23.362;2023-05-08T07:45:12;155584.69;;;17.69;60.33
10127;BME280;13080;42.608;23.362;2023-05-08T07:47:47;155613.41;;;17.80;58.99
10127;BME280;13080;42.608;23.362;2023-05-08T07:50:15;155663.06;;;17.99;60.41
10127;BME280;13080;42.608;23.362;2023-05-08T07:52:43;155668.28;;;18.01;59.48
10127;BME280;13080;42.608;23.362;2023-05-08T07:55:10;155643.50;;;17.92;57.00
10127;BME280;13080;42.608;23.362;2023-05-08T07:57:37;155644.81;;;17.92;57.72
10127;BME280;13080;42.608;23.362;2023-05-08T08:00:05;155663.06;;;17.99;61.63
10127;BME280;13080;42.608;23.362;2023-05-08T08:02:31;155610.81;;;17.79;60.32
10127;BME280;13080;42.608;23.362;2023-05-08T08:04:58;155583.38;;;17.68;58.50
10127;BME280;13080;42.608;23.362;2023-05-08T08:07:25;155542.91;;;17.52;60.65
10127;BME280;13080;42.608;23.362;2023-05-08T08:09:53;155458.06;;;17.19;59.76
10127;BME280;13080;42.608;23.362;2023-05-08T08:12:20;155400.66;;;16.96;61.45
10127;BME280;13080;42.608;23.362;2023-05-08T08:14:48;155454.16;;;17.17;63.69
10127;BME280;13080;42.608;23.362;2023-05-08T08:17:15;155477.69;;;17.27;61.72
10127;BME280;13080;42.608;23.362;2023-05-08T08:19:42;155518.13;;;17.42;61.42
10127;BME280;13080;42.608;23.362;2023-05-08T08:22:09;155515.50;;;17.41;59.98
10127;BME280;13080;42.608;23.362;2023-05-08T08:24:36;155507.69;;;17.38;60.72
10127;BME280;13080;42.608;23.362;2023-05-08T08:27:04;155524.66;;;17.45;59.95
10127;BME280;13080;42.608;23.362;2023-05-08T08:29:31;155579.44;;;17.66;59.92
10127;BME280;13080;42.608;23.362;2023-05-08T08:31:57;155447.63;;;17.15;60.18
10127;BME280;13080;42.608;23.362;2023-05-08T08:34:25;155481.56;;;17.28;59.75
10127;BME280;13080;42.608;23.362;2023-05-08T08:36:51;155563.81;;;17.60;60.15
10127;BME280;13080;42.608;23.362;2023-05-08T08:39:18;155565.13;;;17.61;59.40
10127;BME280;13080;42.608;23.362;2023-05-08T08:41:45;155562.47;;;17.60;59.83
10127;BME280;13080;42.608;23.362;2023-05-08T08:44:13;155612.09;;;17.79;59.82
10127;BME280;13080;42.608;23.362;2023-05-08T08:46:44;155676.13;;;18.04;58.16
10127;BME280;13080;42.608;23.362;2023-05-08T08:49:18;155633.06;;;17.88;57.98
10127;BME280;13080;42.608;23.362;2023-05-08T08:51:49;155562.47;;;17.60;58.20
10127;BME280;13080;42.608;23.362;2023-05-08T08:54:20;155537.69;;;17.50;58.20
10127;BME280;13080;42.608;23.362;2023-05-08T08:56:49;155599.06;;;17.74;60.42
10127;BME280;13080;42.608;23.362;2023-05-08T08:59:18;155614.75;;;17.80;58.40
10127;BME280;13080;42.608;23.362;2023-05-08T09:01:48;155685.28;;;18.08;58.87
10127;BME280;13080;42.608;23.362;2023-05-08T09:04:16;155660.47;;;17.98;57.74
10127;BME280;13080;42.608;23.362;2023-05-08T09:06:43;155566.41;;;17.61;61.58
10127;BME280;13080;42.608;23.362;2023-05-08T09:09:11;155601.66;;;17.75;60.70
10127;BME280;13080;42.608;23.362;2023-05-08T09:11:38;155625.19;;;17.84;61.08
10127;BME280;13080;42.608;23.362;2023-05-08T09:14:05;155587.31;;;17.70;61.20
10127;BME280;13080;42.608;23.362;2023-05-08T09:16:34;155553.38;;;17.56;61.63
10127;BME280;13080;42.608;23.362;2023-05-08T09:19:01;155522.03;;;17.44;61.88
10127;BME280;13080;42.608;23.362;2023-05-08T09:21:28;155514.22;;;17.41;63.28
10127;BME280;13080;42.608;23.362;2023-05-08T09:23:56;155529.88;;;17.47;63.19
10127;BME280;13080;42.608;23.362;2023-05-08T09:26:27;155524.66;;;17.45;62.96
10127;BME280;13080;42.608;23.362;2023-05-08T09:29:07;155549.44;;;17.55;63.83
10127;BME280;13080;42.608;23.362;2023-05-08T09:31:36;155559.88;;;17.59;63.91
10127;BME280;13080;42.608;23.362;2023-05-08T09:34:04;155583.38;;;17.68;62.40
10127;BME280;13080;42.608;23.362;2023-05-08T09:36:31;155587.31;;;17.70;60.91
10127;BME280;13080;42.608;23.362;2023-05-08T09:38:59;155604.28;;;17.76;62.97
10127;BME280;13080;42.608;23.362;2023-05-08T09:41:26;155634.34;;;17.88;63.05
10127;BME280;13080;42.608;23.362;2023-05-08T09:44:00;155661.78;;;17.99;64.02
10127;BME280;13080;42.608;23.362;2023-05-08T09:46:27;155693.09;;;18.11;65.54
10127;BME280;13080;42.608;23.362;2023-05-08T09:48:57;155723.16;;;18.23;63.20
10127;BME280;13080;42.608;23.362;2023-05-08T09:51:25;155730.97;;;18.26;62.94
10127;BME280;13080;42.608;23.362;2023-05-08T09:53:53;155780.63;;;18.45;59.36
10127;BME280;13080;42.608;23.362;2023-05-08T09:56:33;155793.66;;;18.51;59.17
10127;BME280;13080;42.608;23.362;2023-05-08T09:59:01;155762.31;;;18.38;59.54
10127;BME280;13080;42.608;23.362;2023-05-08T10:01:31;155788.44;;;18.48;59.33
10127;BME280;13080;42.608;23.362;2023-05-08T10:04:00;155801.50;;;18.54;59.26
10127;BME280;13080;42.608;23.362;2023-05-08T10:06:28;155822.41;;;18.62;58.56
10127;BME280;13080;42.608;23.362;2023-05-08T10:09:08;155868.19;;;18.80;58.82
10127;BME280;13080;42.608;23.362;2023-05-08T10:11:37;155940.00;;;19.08;58.99
10127;BME280;13080;42.608;23.362;2023-05-08T10:14:04;155968.81;;;19.19;58.08
10127;BME280;13080;42.608;23.362;2023-05-08T10:16:35;155992.31;;;19.28;57.81
10127;BME280;13080;42.608;23.362;2023-05-08T10:19:11;156021.06;;;19.40;57.53
10127;BME280;13080;42.608;23.362;2023-05-08T10:21:40;155971.41;;;19.20;58.21
10127;BME280;13080;42.608;23.362;2023-05-08T10:24:13;155988.38;;;19.27;55.91
10127;BME280;13080;42.608;23.362;2023-05-08T10:26:42;156060.28;;;19.55;55.91
10127;BME280;13080;42.608;23.362;2023-05-08T10:29:15;156099.50;;;19.70;56.63
10127;BME280;13080;42.608;23.362;2023-05-08T10:31:45;156078.56;;;19.62;55.72
10127;BME280;13080;42.608;23.362;2023-05-08T10:34:21;156056.34;;;19.53;58.32
10127;BME280;13080;42.608;23.362;2023-05-08T10:36:49;156116.50;;;19.77;59.23
10127;BME280;13080;42.608;23.362;2023-05-08T10:39:17;156153.13;;;19.91;56.63
10127;BME280;13080;42.608;23.362;2023-05-08T10:41:45;156210.66;;;20.14;58.11
10127;BME280;13080;42.608;23.362;2023-05-08T10:44:12;156219.78;;;20.18;57.70
10127;BME280;13080;42.608;23.362;2023-05-08T10:46:48;156222.44;;;20.19;55.88
10127;BME280;13080;42.608;23.362;2023-05-08T10:49:26;156259.03;;;20.33;58.01
10127;BME280;13080;42.608;23.362;2023-05-08T10:52:05;156215.91;;;20.16;55.29
10127;BME280;13080;42.608;23.362;2023-05-08T10:54:37;156225.03;;;20.20;55.79
10127;BME280;13080;42.608;23.362;2023-05-08T10:57:08;156235.50;;;20.24;55.91
10127;BME280;13080;42.608;23.362;2023-05-08T10:59:36;156211.97;;;20.14;57.20
10127;BME280;13080;42.608;23.362;2023-05-08T11:02:04;156245.97;;;20.28;57.23
10127;BME280;13080;42.608;23.362;2023-05-08T11:04:39;156270.78;;;20.38;55.43
10127;BME280;13080;42.608;23.362;2023-05-08T11:07:10;156213.25;;;20.15;54.91
10127;BME280;13080;42.608;23.362;2023-05-08T11:09:46;156283.91;;;20.43;57.67
10127;BME280;13080;42.608;23.362;2023-05-08T11:12:20;156260.31;;;20.33;56.04
10127;BME280;13080;42.608;23.362;2023-05-08T11:14:59;156286.50;;;20.44;55.24
10127;BME280;13080;42.608;23.362;2023-05-08T11:17:27;156283.91;;;20.43;57.42
10127;BME280;13080;42.608;23.362;2023-05-08T11:19:57;156375.50;;;20.79;57.31
10127;BME280;13080;42.608;23.362;2023-05-08T11:22:26;156370.28;;;20.76;56.45
10127;BME280;13080;42.608;23.362;2023-05-08T11:24:58;156338.84;;;20.64;55.60
10127;BME280;13080;42.608;23.362;2023-05-08T11:30:38;156287.78;;;20.44;56.43
10127;BME280;13080;42.608;23.362;2023-05-08T11:33:28;156278.66;;;20.41;57.53
10127;BME280;13080;42.608;23.362;2023-05-08T11:35:57;156290.44;;;20.45;56.50
10127;BME280;13080;42.608;23.362;2023-05-08T11:38:32;156278.66;;;20.41;55.84
10127;BME280;13080;42.608;23.362;2023-05-08T11:41:01;156204.13;;;20.11;58.13
10127;BME280;13080;42.608;23.362;2023-05-08T11:46:38;156213.25;;;20.15;57.63
10127;BME280;13080;42.608;23.362;2023-05-08T11:49:09;156225.03;;;20.20;55.33
10127;BME280;13080;42.608;23.362;2023-05-08T11:51:38;156208.03;;;20.13;55.63
10127;BME280;13080;42.608;23.362;2023-05-08T11:54:09;156205.44;;;20.12;56.35
10127;BME280;13080;42.608;23.362;2023-05-08T11:56:37;156209.38;;;20.13;55.72
10127;BME280;13080;42.608;23.362;2023-05-08T11:59:04;156234.19;;;20.23;57.53
10127;BME280;13080;42.608;23.362;2023-05-08T12:01:33;156226.38;;;20.20;56.17
10127;BME280;13080;42.608;23.362;2023-05-08T12:04:01;156230.25;;;20.22;55.08
10127;BME280;13080;42.608;23.362;2023-05-08T12:06:28;156232.91;;;20.23;57.98
10127;BME280;13080;42.608;23.362;2023-05-08T12:09:00;156198.91;;;20.09;54.70
10127;BME280;13080;42.608;23.362;2023-05-08T12:11:29;156158.38;;;19.93;55.42
10127;BME280;13080;42.608;23.362;2023-05-08T12:13:56;156176.66;;;20.01;56.03
10127;BME280;13080;42.608;23.362;2023-05-08T12:16:23;156146.59;;;19.89;56.39
10127;BME280;13080;42.608;23.362;2023-05-08T12:18:50;156221.13;;;20.18;55.83
10127;BME280;13080;42.608;23.362;2023-05-08T12:21:18;156273.44;;;20.39;55.61
10127;BME280;13080;42.608;23.362;2023-05-08T12:23:45;156325.78;;;20.59;56.13
10127;BME280;13080;42.608;23.362;2023-05-08T12:26:14;156367.63;;;20.75;57.66
10127;BME280;13080;42.608;23.362;2023-05-08T12:28:43;156379.41;;;20.80;56.39
10127;BME280;13080;42.608;23.362;2023-05-08T12:31:11;156311.31;;;20.53;56.48
10127;BME280;13080;42.608;23.362;2023-05-08T12:33:38;156282.56;;;20.42;56.52
10127;BME280;13080;42.608;23.362;2023-05-08T12:36:05;156248.56;;;20.29;58.17
10127;BME280;13080;42.608;23.362;2023-05-08T12:38:32;156200.19;;;20.10;59.62
10127;BME280;13080;42.608;23.362;2023-05-08T12:41:01;156174.03;;;20.00;60.28
10127;BME280;13080;42.608;23.362;2023-05-08T12:43:33;156121.72;;;19.79;64.20
10127;BME280;13080;42.608;23.362;2023-05-08T12:46:01;156065.47;;;19.57;69.08
10127;BME280;13080;42.608;23.362;2023-05-08T12:48:29;156021.06;;;19.40;72.69
10127;BME280;13080;42.608;23.362;2023-05-08T12:51:00;155860.31;;;18.77;73.84
10127;BME280;13080;42.608;23.362;2023-05-08T12:53:29;155757.13;;;18.36;74.10
10127;BME280;13080;42.608;23.362;2023-05-08T12:55:57;155774.06;;;18.43;79.98
10127;BME280;13080;42.608;23.362;2023-05-08T12:58:27;155774.06;;;18.43;83.09
10127;BME280;13080;42.608;23.362;2023-05-08T13:01:05;155794.97;;;18.51;84.47
10127;BME280;13080;42.608;23.362;2023-05-08T13:03:34;155813.25;;;18.58;83.73